createdAt,value
2019-05-09T00:00:05.540Z,2.13
2019-05-09T00:02:38.929Z,2.57
2019-05-09T00:05:10.203Z,2.97
2019-05-09T00:07:41.015Z,2.97
2019-05-09T00:10:14.229Z,2.77
2019-05-09T00:12:44.825Z,4.17
2019-05-09T00:15:15.762Z,2.55
2019-05-09T00:17:46.456Z,3.23
2019-05-09T00:20:37.718Z,2.17
2019-05-09T00:23:08.608Z,2.27
2019-05-09T00:25:39.465Z,2.50
2019-05-09T00:28:10.136Z,2.83
2019-05-09T00:31:15.093Z,2.52
2019-05-09T00:33:50.433Z,2.73
2019-05-09T00:36:23.223Z,3.70
2019-05-09T00:38:53.828Z,3.17
2019-05-09T00:41:24.686Z,2.47
2019-05-09T00:44:03.403Z,2.90
2019-05-09T00:46:56.090Z,4.53
2019-05-09T00:49:27.473Z,2.60
2019-05-09T00:51:58.434Z,3.67
2019-05-09T00:54:29.349Z,3.27
2019-05-09T00:57:00.063Z,6.60
2019-05-09T00:59:33.096Z,7.60
2019-05-09T01:02:04.086Z,5.87
2019-05-09T01:04:35.128Z,3.23
2019-05-09T01:07:06.140Z,5.10
2019-05-09T01:09:36.837Z,4.27
2019-05-09T01:12:07.798Z,3.03
2019-05-09T01:14:38.682Z,7.50
2019-05-09T01:17:09.487Z,6.75
2019-05-09T01:19:40.362Z,5.45
2019-05-09T01:22:13.223Z,4.75
2019-05-09T01:24:44.355Z,4.00
2019-05-09T01:27:15.266Z,6.40
2019-05-09T01:29:48.145Z,4.95
2019-05-09T01:32:27.090Z,3.80
2019-05-09T01:34:58.231Z,6.17
2019-05-09T01:37:29.401Z,4.30
2019-05-09T01:40:00.695Z,6.70
2019-05-09T01:42:33.654Z,5.33
2019-05-09T01:45:04.082Z,5.60
2019-05-09T01:47:34.907Z,5.90
2019-05-09T01:50:05.999Z,5.63
2019-05-09T01:52:36.831Z,5.70
2019-05-09T01:55:07.948Z,5.97
2019-05-09T01:57:38.839Z,5.83
2019-05-09T02:00:10.678Z,3.60
2019-05-09T02:02:43.405Z,5.30
2019-05-09T02:05:14.349Z,6.70
2019-05-09T02:07:45.014Z,4.80
2019-05-09T02:10:16.891Z,4.27
2019-05-09T02:12:47.571Z,6.10
2019-05-09T02:15:34.427Z,4.87
2019-05-09T02:18:13.614Z,4.30
2019-05-09T02:20:44.334Z,5.30
2019-05-09T02:23:15.215Z,5.95
2019-05-09T02:25:46.133Z,4.10
2019-05-09T02:28:17.015Z,4.20
2019-05-09T02:30:48.922Z,4.17
2019-05-09T02:33:19.930Z,4.05
2019-05-09T02:35:56.576Z,4.30
2019-05-09T02:38:23.297Z,4.50
2019-05-09T02:40:55.051Z,4.60
2019-05-09T02:43:29.004Z,5.20
2019-05-09T02:46:09.416Z,5.13
2019-05-09T02:48:38.752Z,4.23
2019-05-09T02:51:09.777Z,3.73
2019-05-09T02:53:40.569Z,4.83
2019-05-09T02:56:11.519Z,4.30
2019-05-09T02:58:50.768Z,4.00
2019-05-09T03:01:34.548Z,4.62
2019-05-09T03:04:08.375Z,4.20
2019-05-09T03:06:38.869Z,4.40
2019-05-09T03:09:10.161Z,3.40
2019-05-09T03:11:41.214Z,3.17
2019-05-09T03:14:12.065Z,3.60
2019-05-09T03:16:43.014Z,3.80
2019-05-09T03:19:14.049Z,3.60
2019-05-09T03:21:58.341Z,3.43
2019-05-09T03:24:28.992Z,3.20
2019-05-09T03:27:04.143Z,4.23
2019-05-09T03:29:49.084Z,3.57
2019-05-09T03:32:19.995Z,3.70
2019-05-09T03:34:50.909Z,2.90
2019-05-09T03:37:21.824Z,3.30
2019-05-09T03:39:52.889Z,3.40
2019-05-09T03:42:40.075Z,3.10
2019-05-09T03:44:58.067Z,3.17
2019-05-09T03:47:51.689Z,4.07
2019-05-09T03:50:23.863Z,3.47
2019-05-09T03:52:57.953Z,4.03
2019-05-09T03:55:32.705Z,3.43
2019-05-09T03:58:13.567Z,3.60
2019-05-09T04:00:47.918Z,2.60
2019-05-09T04:03:20.314Z,3.30
2019-05-09T04:05:59.157Z,3.77
2019-05-09T04:08:24.719Z,3.60
2019-05-09T04:10:58.375Z,2.93
2019-05-09T04:13:33.753Z,3.10
2019-05-09T04:16:07.495Z,3.12
2019-05-09T04:18:40.359Z,3.23
2019-05-09T04:21:10.683Z,2.63
2019-05-09T04:23:43.201Z,2.80
2019-05-09T04:26:33.185Z,2.87
2019-05-09T04:29:04.038Z,3.37
2019-05-09T04:31:34.778Z,3.00
2019-05-09T04:34:07.767Z,3.10
2019-05-09T04:36:41.377Z,2.53
2019-05-09T04:39:21.035Z,3.37
2019-05-09T04:41:48.632Z,3.27
2019-05-09T04:44:28.204Z,3.43
2019-05-09T04:47:00.170Z,3.07
2019-05-09T04:49:39.327Z,3.20
2019-05-09T04:52:03.661Z,2.90
2019-05-09T04:54:34.531Z,2.47
2019-05-09T04:57:07.717Z,2.97
2019-05-09T04:59:38.008Z,3.03
2019-05-09T05:02:31.097Z,2.33
2019-05-09T05:05:01.934Z,2.80
2019-05-09T05:07:32.697Z,2.00
2019-05-09T05:10:03.781Z,2.23
2019-05-09T05:12:34.617Z,2.10
2019-05-09T05:15:08.030Z,2.10
2019-05-09T05:17:38.604Z,2.47
2019-05-09T05:20:13.475Z,2.00
2019-05-09T05:23:03.929Z,2.20
2019-05-09T05:25:34.828Z,2.60
2019-05-09T05:28:08.310Z,1.93
2019-05-09T05:30:39.752Z,2.37
2019-05-09T05:33:38.274Z,1.90
2019-05-09T05:36:09.573Z,2.33
2019-05-09T05:38:40.591Z,2.30
2019-05-09T05:41:11.674Z,2.50
2019-05-09T05:43:44.738Z,2.13
2019-05-09T05:46:30.329Z,2.40
2019-05-09T05:49:01.548Z,2.33
2019-05-09T05:51:49.127Z,2.03
2019-05-09T05:54:21.185Z,2.07
2019-05-09T05:56:52.099Z,2.50
2019-05-09T05:59:22.902Z,3.08
2019-05-09T06:01:53.865Z,2.23
2019-05-09T06:04:24.679Z,2.83
2019-05-09T06:06:55.566Z,2.57
2019-05-09T06:09:28.051Z,2.20
2019-05-09T06:11:59.591Z,2.20
2019-05-09T06:14:30.492Z,1.87
2019-05-09T06:17:01.281Z,1.80
2019-05-09T06:19:32.242Z,2.12
2019-05-09T06:22:03.300Z,2.13
2019-05-09T06:24:34.245Z,2.43
2019-05-09T06:27:09.853Z,2.07
2019-05-09T06:29:38.639Z,1.85
2019-05-09T06:32:09.532Z,2.30
2019-05-09T06:34:42.164Z,2.67
2019-05-09T06:37:12.972Z,2.00
2019-05-09T06:39:43.832Z,2.30
2019-05-09T06:42:14.655Z,2.00
2019-05-09T06:44:58.550Z,2.20
2019-05-09T06:47:33.315Z,1.80
2019-05-09T06:50:08.123Z,3.13
2019-05-09T06:52:38.966Z,2.17
2019-05-09T06:55:09.950Z,2.10
2019-05-09T06:57:42.961Z,2.07
2019-05-09T07:00:23.148Z,2.33
2019-05-09T07:03:19.102Z,2.47
2019-05-09T07:06:01.162Z,2.10
2019-05-09T07:08:39.833Z,1.97
2019-05-09T07:11:10.630Z,2.30
2019-05-09T07:13:41.447Z,1.97
2019-05-09T07:16:12.186Z,2.27
2019-05-09T07:18:43.043Z,2.17
2019-05-09T07:21:13.922Z,2.00
2019-05-09T07:23:44.913Z,1.70
2019-05-09T07:26:21.717Z,1.77
2019-05-09T07:28:52.829Z,1.80
2019-05-09T07:31:33.919Z,2.03
2019-05-09T07:34:13.132Z,1.98
2019-05-09T07:36:43.972Z,1.57
2019-05-09T07:39:14.853Z,1.93
2019-05-09T07:41:47.723Z,1.80
2019-05-09T07:44:18.400Z,1.70
2019-05-09T07:47:04.065Z,2.07
2019-05-09T07:49:34.903Z,1.63
2019-05-09T07:52:09.390Z,1.50
2019-05-09T07:54:38.235Z,1.50
2019-05-09T07:57:09.223Z,1.47
2019-05-09T07:59:40.025Z,1.60
2019-05-09T08:02:10.797Z,1.50
2019-05-09T08:04:43.583Z,1.30
2019-05-09T08:07:14.465Z,1.67
2019-05-09T08:09:47.445Z,1.53
2019-05-09T08:12:18.215Z,2.00
2019-05-09T08:15:06.698Z,1.10
2019-05-09T08:17:23.651Z,1.98
2019-05-09T08:19:54.535Z,1.70
2019-05-09T08:22:31.947Z,1.43
2019-05-09T08:24:59.171Z,1.22
2019-05-09T08:27:30.308Z,1.43
2019-05-09T08:30:01.283Z,1.30
2019-05-09T08:32:32.131Z,1.47
2019-05-09T08:35:03.238Z,1.37
2019-05-09T08:37:33.930Z,1.70
2019-05-09T08:40:04.932Z,1.50
2019-05-09T08:42:37.790Z,1.00
2019-05-09T08:45:24.171Z,1.47
2019-05-09T08:47:41.692Z,1.23
2019-05-09T08:50:35.112Z,1.43
2019-05-09T08:53:08.192Z,1.30
2019-05-09T08:55:39.140Z,1.47
2019-05-09T08:58:09.943Z,1.50
2019-05-09T09:00:40.897Z,1.90
2019-05-09T09:03:13.576Z,1.00
2019-05-09T09:05:44.554Z,1.30
2019-05-09T09:08:18.102Z,1.50
2019-05-09T09:10:49.081Z,1.40
2019-05-09T09:13:20.006Z,1.33
2019-05-09T09:16:08.538Z,1.37
2019-05-09T09:18:23.204Z,2.05
2019-05-09T09:20:54.066Z,1.60
2019-05-09T09:23:40.722Z,1.07
2019-05-09T09:25:58.409Z,1.27
2019-05-09T09:28:29.427Z,1.97
2019-05-09T09:31:00.363Z,1.67
2019-05-09T09:33:31.799Z,1.70
2019-05-09T09:36:02.762Z,1.10
2019-05-09T09:38:33.781Z,1.57
2019-05-09T09:41:07.597Z,1.45
2019-05-09T09:43:38.494Z,1.80
2019-05-09T09:46:14.481Z,1.67
2019-05-09T09:48:42.102Z,1.90
2019-05-09T09:51:12.928Z,1.80
2019-05-09T09:53:43.845Z,1.73
2019-05-09T09:56:17.659Z,2.10
2019-05-09T09:58:53.788Z,1.43
2019-05-09T10:01:28.751Z,1.97
2019-05-09T10:04:16.639Z,1.80
2019-05-09T10:06:38.795Z,1.80
2019-05-09T10:09:10.126Z,2.47
2019-05-09T10:11:41.122Z,1.50
2019-05-09T10:14:15.150Z,1.87
2019-05-09T10:16:58.079Z,1.73
2019-05-09T10:19:51.742Z,1.80
2019-05-09T10:22:25.915Z,2.03
2019-05-09T10:24:58.531Z,1.73
2019-05-09T10:27:30.641Z,1.53
2019-05-09T10:30:01.643Z,2.40
2019-05-09T10:32:34.102Z,1.90
2019-05-09T10:35:05.226Z,1.77
2019-05-09T10:37:39.235Z,1.90
2019-05-09T10:40:11.168Z,1.80
2019-05-09T10:42:58.466Z,1.97
2019-05-09T10:45:57.872Z,1.90
2019-05-09T10:48:30.749Z,2.50
2019-05-09T10:51:05.490Z,2.00
2019-05-09T10:53:35.432Z,2.20
2019-05-09T10:56:08.937Z,4.00
2019-05-09T10:58:39.841Z,2.17
2019-05-09T11:01:10.628Z,2.77
2019-05-09T11:03:41.507Z,2.20
2019-05-09T11:06:12.575Z,2.25
2019-05-09T11:08:44.591Z,2.30
2019-05-09T11:11:17.837Z,2.40
2019-05-09T11:13:48.624Z,2.30
2019-05-09T11:16:19.560Z,2.35
2019-05-09T11:18:51.217Z,2.98
2019-05-09T11:21:23.759Z,2.33
2019-05-09T11:23:58.411Z,2.60
2019-05-09T11:26:29.041Z,2.37
2019-05-09T11:28:59.931Z,2.00
2019-05-09T11:31:33.017Z,3.33
2019-05-09T11:34:08.623Z,2.30
2019-05-09T11:36:40.343Z,2.03
2019-05-09T11:39:11.930Z,2.17
2019-05-09T11:41:45.787Z,2.43
2019-05-09T11:44:27.245Z,2.30
2019-05-09T11:46:59.083Z,2.23
2019-05-09T11:49:29.930Z,2.20
2019-05-09T11:52:00.656Z,2.50
2019-05-09T11:54:35.802Z,2.27
2019-05-09T11:57:09.445Z,2.50
2019-05-09T11:59:40.362Z,2.70
2019-05-09T12:02:11.250Z,2.33
2019-05-09T12:04:43.011Z,2.40
2019-05-09T12:07:13.805Z,2.23
2019-05-09T12:09:44.841Z,2.33
2019-05-09T12:12:15.914Z,2.67
2019-05-09T12:14:48.375Z,2.00
2019-05-09T12:17:20.373Z,2.60
2019-05-09T12:19:51.411Z,2.30
2019-05-09T12:22:22.411Z,2.05
2019-05-09T12:24:59.217Z,2.10
2019-05-09T12:27:34.991Z,2.80
2019-05-09T12:30:08.488Z,2.53
2019-05-09T12:32:39.784Z,2.63
2019-05-09T12:35:12.395Z,2.40
2019-05-09T12:37:43.926Z,2.67
2019-05-09T12:40:14.984Z,3.37
2019-05-09T12:42:50.095Z,2.90
2019-05-09T12:45:23.612Z,3.00
2019-05-09T12:48:07.442Z,2.40
2019-05-09T12:50:40.329Z,2.63
2019-05-09T12:53:13.489Z,2.93
2019-05-09T12:55:47.434Z,2.43
2019-05-09T12:58:32.670Z,2.70
2019-05-09T13:01:04.618Z,3.47
2019-05-09T13:03:38.025Z,3.20
2019-05-09T13:06:10.903Z,4.50
2019-05-09T13:08:41.930Z,2.90
2019-05-09T13:11:13.349Z,3.70
2019-05-09T13:13:44.994Z,4.80
2019-05-09T13:16:50.480Z,3.53
2019-05-09T13:19:21.013Z,3.20
2019-05-09T13:22:12.736Z,3.50
2019-05-09T13:28:48.923Z,4.50
2019-05-09T13:35:19.963Z,3.50
2019-05-09T13:41:14.176Z,3.80
2019-05-09T13:44:13.949Z,3.30
2019-05-09T13:46:59.813Z,3.80
2019-05-09T13:52:42.867Z,3.40
2019-05-09T13:55:13.737Z,3.75
2019-05-09T13:57:44.641Z,4.20
2019-05-09T14:00:18.535Z,3.33
2019-05-09T14:02:49.298Z,3.53
2019-05-09T14:05:22.301Z,3.30
2019-05-09T14:07:55.219Z,3.83
2019-05-09T14:10:25.722Z,3.67
2019-05-09T14:13:06.851Z,3.67
2019-05-09T14:15:29.665Z,3.87
2019-05-09T14:18:00.792Z,3.50
2019-05-09T14:20:31.796Z,3.43
2019-05-09T14:23:03.894Z,3.63
2019-05-09T14:25:34.641Z,3.30
2019-05-09T14:28:08.341Z,3.37
2019-05-09T14:30:40.818Z,3.33
2019-05-09T14:33:11.893Z,3.35
2019-05-09T14:35:43.729Z,3.53
2019-05-09T14:38:14.840Z,3.55
2019-05-09T14:40:47.413Z,3.57
2019-05-09T14:43:19.031Z,2.75
2019-05-09T14:45:54.298Z,3.40
2019-05-09T14:48:28.706Z,2.93
2019-05-09T14:51:07.617Z,3.33
2019-05-09T14:53:41.225Z,3.42
2019-05-09T14:56:12.083Z,3.07
2019-05-09T14:58:43.969Z,3.33
2019-05-09T15:01:14.999Z,3.90
2019-05-09T15:03:48.401Z,3.50
2019-05-09T15:06:20.354Z,3.10
2019-05-09T15:08:51.297Z,3.30
2019-05-09T15:11:22.286Z,3.08
2019-05-09T15:13:53.306Z,3.07
2019-05-09T15:16:28.438Z,2.70
2019-05-09T15:18:59.356Z,2.80
2019-05-09T15:21:30.308Z,3.10
2019-05-09T15:24:01.427Z,3.77
2019-05-09T15:26:32.377Z,3.27
2019-05-09T15:29:03.323Z,3.20
2019-05-09T15:31:34.195Z,2.70
2019-05-09T15:34:05.482Z,2.70
2019-05-09T15:36:37.933Z,2.77
2019-05-09T15:39:09.027Z,2.50
2019-05-09T15:41:39.852Z,1.90
2019-05-09T15:44:10.967Z,2.30
2019-05-09T15:46:52.310Z,2.10
2019-05-09T15:49:23.224Z,1.90
2019-05-09T15:51:54.075Z,2.00
2019-05-09T15:54:24.920Z,2.17
2019-05-09T15:56:57.881Z,2.23
2019-05-09T15:59:29.479Z,1.97
2019-05-09T16:02:00.294Z,1.72
2019-05-09T16:04:31.683Z,1.63
2019-05-09T16:07:02.991Z,1.50
2019-05-09T16:09:37.758Z,1.33
2019-05-09T16:12:11.026Z,1.80
2019-05-09T16:14:41.968Z,1.50
2019-05-09T16:17:13.080Z,1.50
2019-05-09T16:19:44.475Z,1.73
2019-05-09T16:22:15.253Z,1.30
2019-05-09T16:24:48.346Z,0.87
2019-05-09T16:27:18.883Z,1.27
2019-05-09T16:29:50.198Z,1.13
2019-05-09T16:32:21.339Z,1.23
2019-05-09T16:34:52.251Z,1.30
2019-05-09T16:37:23.205Z,0.90
2019-05-09T16:39:54.129Z,1.37
2019-05-09T16:42:27.593Z,1.27
2019-05-09T16:44:59.801Z,1.43
2019-05-09T16:47:31.026Z,1.30
2019-05-09T16:50:04.738Z,0.97
2019-05-09T16:52:43.053Z,1.43
2019-05-09T16:55:12.821Z,1.20
2019-05-09T16:57:45.025Z,1.53
2019-05-09T17:00:30.095Z,1.05
2019-05-09T17:03:00.981Z,1.20
2019-05-09T17:05:32.038Z,1.13
2019-05-09T17:08:08.165Z,1.10
2019-05-09T17:10:39.315Z,0.90
2019-05-09T17:13:10.217Z,1.00
2019-05-09T17:15:41.385Z,1.50
2019-05-09T17:18:12.747Z,0.97
2019-05-09T17:21:00.007Z,0.90
2019-05-09T17:23:30.050Z,1.23
2019-05-09T17:26:01.174Z,1.10
2019-05-09T17:28:34.424Z,1.03
2019-05-09T17:31:08.651Z,1.40
2019-05-09T17:33:39.809Z,0.90
2019-05-09T17:36:10.692Z,0.98
2019-05-09T17:38:43.791Z,1.43
2019-05-09T17:41:17.765Z,1.43
2019-05-09T17:43:49.552Z,1.23
2019-05-09T17:46:24.265Z,1.20
2019-05-09T17:48:53.175Z,1.20
2019-05-09T17:51:33.105Z,1.60
2019-05-09T17:53:58.379Z,1.60
2019-05-09T17:56:29.286Z,1.60
2019-05-09T17:59:00.302Z,1.40
2019-05-09T18:01:31.280Z,1.30
2019-05-09T18:04:02.158Z,1.13
2019-05-09T18:06:33.394Z,1.30
2019-05-09T18:09:08.234Z,1.47
2019-05-09T18:11:39.053Z,1.17
2019-05-09T18:14:12.989Z,1.95
2019-05-09T18:16:44.181Z,1.60
2019-05-09T18:19:15.088Z,1.70
2019-05-09T18:21:50.782Z,2.20
2019-05-09T18:24:18.797Z,1.40
2019-05-09T18:26:49.970Z,1.70
2019-05-09T18:29:21.216Z,1.40
2019-05-09T18:32:09.644Z,1.67
2019-05-09T18:34:40.492Z,1.77
2019-05-09T18:37:12.369Z,1.60
2019-05-09T18:39:43.231Z,1.70
2019-05-09T18:42:13.929Z,1.45
2019-05-09T18:44:47.663Z,1.43
2019-05-09T18:47:19.748Z,1.90
2019-05-09T18:49:51.783Z,2.03
2019-05-09T18:52:22.857Z,1.83
2019-05-09T18:54:54.433Z,2.00
2019-05-09T18:57:25.285Z,2.08
2019-05-09T18:59:56.239Z,2.30
2019-05-09T19:02:27.156Z,2.03
2019-05-09T19:04:58.207Z,1.55
2019-05-09T19:07:33.163Z,1.63
2019-05-09T19:10:04.289Z,2.93
2019-05-09T19:12:35.283Z,1.87
2019-05-09T19:15:17.069Z,1.60
2019-05-09T19:17:59.627Z,3.93
2019-05-09T19:20:58.851Z,2.00
2019-05-09T19:23:31.928Z,1.80
2019-05-09T19:26:09.490Z,1.73
2019-05-09T19:28:40.480Z,1.90
2019-05-09T19:31:11.415Z,2.00
2019-05-09T19:33:43.431Z,2.00
2019-05-09T19:36:15.521Z,2.97
2019-05-09T19:38:46.271Z,2.10
2019-05-09T19:41:17.210Z,2.20
2019-05-09T19:43:48.206Z,2.13
2019-05-09T19:46:20.465Z,2.08
2019-05-09T19:48:51.410Z,1.97
2019-05-09T19:51:22.167Z,2.00
2019-05-09T19:53:53.039Z,2.00
2019-05-09T19:56:24.300Z,1.90
2019-05-09T19:58:56.481Z,2.23
2019-05-09T20:01:30.570Z,2.30
2019-05-09T20:04:01.302Z,1.60
2019-05-09T20:06:32.302Z,1.82
2019-05-09T20:09:06.553Z,2.10
2019-05-09T20:11:57.305Z,2.10
2019-05-09T20:14:49.240Z,2.40
2019-05-09T20:17:20.047Z,2.47
2019-05-09T20:19:51.049Z,2.10
2019-05-09T20:22:26.460Z,2.30
2019-05-09T20:24:57.628Z,2.33
2019-05-09T20:27:32.299Z,2.10
2019-05-09T20:30:03.462Z,2.07
2019-05-09T20:32:41.928Z,2.33
2019-05-09T20:35:13.034Z,2.20
2019-05-09T20:37:44.057Z,2.27
2019-05-09T20:40:16.729Z,2.33
2019-05-09T20:42:48.135Z,2.47
2019-05-09T20:45:19.571Z,2.40
2019-05-09T20:47:50.981Z,2.30
2019-05-09T20:50:22.688Z,2.00
2019-05-09T20:53:08.448Z,2.40
2019-05-09T20:55:28.238Z,2.60
2019-05-09T20:57:59.408Z,2.50
2019-05-09T21:00:30.489Z,2.73
2019-05-09T21:03:01.477Z,2.30
2019-05-09T21:05:32.683Z,2.43
2019-05-09T21:08:03.636Z,2.33
2019-05-09T21:10:34.714Z,2.47
2019-05-09T21:13:05.743Z,3.03
2019-05-09T21:15:36.966Z,2.60
2019-05-09T21:18:09.219Z,2.37
2019-05-09T21:20:40.396Z,2.30
2019-05-09T21:23:23.880Z,2.20
2019-05-09T21:25:44.738Z,2.12
2019-05-09T21:28:15.719Z,2.40
2019-05-09T21:30:47.206Z,2.10
2019-05-09T21:33:19.871Z,2.55
2019-05-09T21:35:50.685Z,2.33
2019-05-09T21:38:21.538Z,2.27
2019-05-09T21:40:52.618Z,2.60
2019-05-09T21:43:23.578Z,2.80
2019-05-09T21:45:54.665Z,2.20
2019-05-09T21:48:25.606Z,2.60
2019-05-09T21:50:56.649Z,2.27
2019-05-09T21:53:39.806Z,2.33
2019-05-09T21:56:00.123Z,2.47
2019-05-09T21:58:30.847Z,2.43
2019-05-09T22:01:01.814Z,2.40
2019-05-09T22:03:32.966Z,1.90
2019-05-09T22:06:03.927Z,2.60
2019-05-09T22:08:35.311Z,2.27
2019-05-09T22:11:06.435Z,2.37
2019-05-09T22:13:38.975Z,2.30
2019-05-09T22:16:09.952Z,2.40
2019-05-09T22:18:40.895Z,2.43
2019-05-09T22:21:21.706Z,3.52
2019-05-09T22:23:56.324Z,2.17
2019-05-09T22:26:25.524Z,2.37
2019-05-09T22:28:56.399Z,3.90
2019-05-09T22:31:27.200Z,2.87
2019-05-09T22:33:58.078Z,2.70
2019-05-09T22:36:29.898Z,3.00
2019-05-09T22:39:01.781Z,3.00
2019-05-09T22:41:33.927Z,2.37
2019-05-09T22:44:05.310Z,2.85
2019-05-09T22:46:36.078Z,2.58
2019-05-09T22:49:06.853Z,2.67
2019-05-09T22:51:39.771Z,2.80
2019-05-09T22:54:12.971Z,3.92
2019-05-09T22:56:43.148Z,2.80
2019-05-09T22:59:14.111Z,3.27
2019-05-09T23:01:44.970Z,2.93
2019-05-09T23:04:16.445Z,2.93
2019-05-09T23:06:47.190Z,3.23
2019-05-09T23:09:18.022Z,2.70
2019-05-09T23:11:48.721Z,2.90
2019-05-09T23:14:19.719Z,2.83
2019-05-09T23:16:50.930Z,2.80
2019-05-09T23:19:22.039Z,3.03
2019-05-09T23:21:53.087Z,2.97
2019-05-09T23:24:28.590Z,3.00
2019-05-09T23:26:58.772Z,2.90
2019-05-09T23:29:29.495Z,4.50
2019-05-09T23:32:09.137Z,3.77
2019-05-09T23:34:40.016Z,3.03
2019-05-09T23:37:10.780Z,2.83
2019-05-09T23:39:43.882Z,2.90
2019-05-09T23:42:15.066Z,2.50
2019-05-09T23:44:45.938Z,2.80
2019-05-09T23:47:16.942Z,2.98
2019-05-09T23:49:47.737Z,2.80
2019-05-09T23:52:18.627Z,2.55
2019-05-09T23:55:06.963Z,2.70
2019-05-09T23:57:55.650Z,2.60
